sensor_id;sensor_type;location;lat;lon;timestamp;P1;durP1;ratioP1;P2;durP2;ratioP2
30080;SDS011;16902;50.816;12.828;2023-07-08T00:04:29;9.10;;;8.50;;
30080;SDS011;16902;50.816;12.828;2023-07-08T00:09:31;8.50;;;8.10;;
30080;SDS011;16902;50.816;12.828;2023-07-08T00:14:36;7.43;;;7.13;;
30080;SDS011;16902;50.816;12.828;2023-07-08T00:19:39;7.70;;;7.38;;
30080;SDS011;16902;50.816;12.828;2023-07-08T00:24:42;8.68;;;8.20;;
30080;SDS011;16902;50.816;12.828;2023-07-08T00:29:44;7.68;;;7.38;;
30080;SDS011;16902;50.816;12.828;2023-07-08T00:34:46;7.57;;;7.20;;
30080;SDS011;16902;50.816;12.828;2023-07-08T00:39:48;7.82;;;7.32;;
30080;SDS011;16902;50.816;12.828;2023-07-08T00:44:50;8.30;;;7.70;;
30080;SDS011;16902;50.816;12.828;2023-07-08T00:49:58;8.35;;;7.85;;
30080;SDS011;16902;50.816;12.828;2023-07-08T00:55:06;8.23;;;7.72;;
30080;SDS011;16902;50.816;12.828;2023-07-08T01:00:12;8.27;;;7.78;;
30080;SDS011;16902;50.816;12.828;2023-07-08T01:05:21;9.00;;;8.40;;
30080;SDS011;16902;50.816;12.828;2023-07-08T01:10:26;7.85;;;7.45;;
30080;SDS011;16902;50.816;12.828;2023-07-08T01:15:37;7.93;;;7.50;;
30080;SDS011;16902;50.816;12.828;2023-07-08T01:20:45;7.88;;;7.47;;
30080;SDS011;16902;50.816;12.828;2023-07-08T01:25:49;8.52;;;7.70;;
30080;SDS011;16902;50.816;12.828;2023-07-08T01:30:52;8.13;;;7.63;;
30080;SDS011;16902;50.816;12.828;2023-07-08T01:35:54;8.05;;;7.65;;
30080;SDS011;16902;50.816;12.828;2023-07-08T01:40:59;7.80;;;7.35;;
30080;SDS011;16902;50.816;12.828;2023-07-08T01:46:01;7.85;;;7.28;;
30080;SDS011;16902;50.816;12.828;2023-07-08T01:51:05;7.32;;;6.78;;
30080;SDS011;16902;50.816;12.828;2023-07-08T01:56:08;7.20;;;6.80;;
30080;SDS011;16902;50.816;12.828;2023-07-08T02:01:12;7.25;;;6.85;;
30080;SDS011;16902;50.816;12.828;2023-07-08T02:06:14;7.45;;;7.05;;
30080;SDS011;16902;50.816;12.828;2023-07-08T02:11:16;6.55;;;6.25;;
30080;SDS011;16902;50.816;12.828;2023-07-08T02:16:18;6.95;;;6.55;;
30080;SDS011;16902;50.816;12.828;2023-07-08T02:21:20;7.32;;;6.95;;
30080;SDS011;16902;50.816;12.828;2023-07-08T02:26:22;7.55;;;7.15;;
30080;SDS011;16902;50.816;12.828;2023-07-08T02:31:25;6.57;;;6.18;;
30080;SDS011;16902;50.816;12.828;2023-07-08T02:36:28;7.38;;;6.97;;
30080;SDS011;16902;50.816;12.828;2023-07-08T02:41:33;6.38;;;6.13;;
30080;SDS011;16902;50.816;12.828;2023-07-08T02:46:35;6.05;;;5.78;;
30080;SDS011;16902;50.816;12.828;2023-07-08T02:51:37;6.32;;;5.93;;
30080;SDS011;16902;50.816;12.828;2023-07-08T02:56:39;6.35;;;6.05;;
30080;SDS011;16902;50.816;12.828;2023-07-08T03:01:41;6.55;;;6.25;;
30080;SDS011;16902;50.816;12.828;2023-07-08T03:06:44;6.25;;;5.93;;
30080;SDS011;16902;50.816;12.828;2023-07-08T03:11:46;6.80;;;6.40;;
30080;SDS011;16902;50.816;12.828;2023-07-08T03:16:48;6.90;;;6.53;;
30080;SDS011;16902;50.816;12.828;2023-07-08T03:21:50;6.70;;;6.30;;
30080;SDS011;16902;50.816;12.828;2023-07-08T03:26:52;6.90;;;6.60;;
30080;SDS011;16902;50.816;12.828;2023-07-08T03:31:58;6.38;;;6.07;;
30080;SDS011;16902;50.816;12.828;2023-07-08T03:37:00;6.38;;;6.10;;
30080;SDS011;16902;50.816;12.828;2023-07-08T03:42:02;6.07;;;5.78;;
30080;SDS011;16902;50.816;12.828;2023-07-08T03:47:05;6.07;;;5.78;;
30080;SDS011;16902;50.816;12.828;2023-07-08T03:52:11;7.40;;;6.90;;
30080;SDS011;16902;50.816;12.828;2023-07-08T03:57:20;6.90;;;6.55;;
30080;SDS011;16902;50.816;12.828;2023-07-08T04:02:22;6.97;;;6.45;;
30080;SDS011;16902;50.816;12.828;2023-07-08T04:07:24;6.53;;;6.10;;
30080;SDS011;16902;50.816;12.828;2023-07-08T04:12:26;5.85;;;5.55;;
30080;SDS011;16902;50.816;12.828;2023-07-08T04:17:32;5.38;;;5.18;;
30080;SDS011;16902;50.816;12.828;2023-07-08T04:22:34;5.63;;;5.32;;
30080;SDS011;16902;50.816;12.828;2023-07-08T04:27:36;5.97;;;5.68;;
30080;SDS011;16902;50.816;12.828;2023-07-08T04:32:37;6.43;;;6.13;;
30080;SDS011;16902;50.816;12.828;2023-07-08T04:37:39;6.38;;;5.97;;
30080;SDS011;16902;50.816;12.828;2023-07-08T04:42:41;6.03;;;5.72;;
30080;SDS011;16902;50.816;12.828;2023-07-08T04:47:45;6.57;;;6.18;;
30080;SDS011;16902;50.816;12.828;2023-07-08T04:52:53;6.10;;;5.90;;
30080;SDS011;16902;50.816;12.828;2023-07-08T04:57:55;6.65;;;6.20;;
30080;SDS011;16902;50.816;12.828;2023-07-08T05:02:56;6.03;;;5.72;;
30080;SDS011;16902;50.816;12.828;2023-07-08T05:07:58;6.13;;;5.82;;
30080;SDS011;16902;50.816;12.828;2023-07-08T05:13:00;6.80;;;6.40;;
30080;SDS011;16902;50.816;12.828;2023-07-08T05:18:02;6.35;;;6.00;;
30080;SDS011;16902;50.816;12.828;2023-07-08T05:23:04;6.13;;;5.82;;
30080;SDS011;16902;50.816;12.828;2023-07-08T05:28:06;5.65;;;5.45;;
30080;SDS011;16902;50.816;12.828;2023-07-08T05:33:08;5.70;;;5.40;;
30080;SDS011;16902;50.816;12.828;2023-07-08T05:38:10;5.80;;;5.50;;
30080;SDS011;16902;50.816;12.828;2023-07-08T05:43:12;6.28;;;5.85;;
30080;SDS011;16902;50.816;12.828;2023-07-08T05:48:14;6.05;;;5.75;;
30080;SDS011;16902;50.816;12.828;2023-07-08T05:53:17;5.82;;;5.53;;
30080;SDS011;16902;50.816;12.828;2023-07-08T05:58:20;6.10;;;5.75;;
30080;SDS011;16902;50.816;12.828;2023-07-08T06:03:27;6.30;;;6.00;;
30080;SDS011;16902;50.816;12.828;2023-07-08T06:08:29;7.35;;;6.85;;
30080;SDS011;16902;50.816;12.828;2023-07-08T06:13:30;7.57;;;7.28;;
30080;SDS011;16902;50.816;12.828;2023-07-08T06:18:32;9.23;;;8.82;;
30080;SDS011;16902;50.816;12.828;2023-07-08T06:23:34;9.90;;;9.48;;
30080;SDS011;16902;50.816;12.828;2023-07-08T06:28:36;10.10;;;9.70;;
30080;SDS011;16902;50.816;12.828;2023-07-08T06:33:38;10.50;;;10.00;;
30080;SDS011;16902;50.816;12.828;2023-07-08T06:38:41;10.57;;;10.10;;
30080;SDS011;16902;50.816;12.828;2023-07-08T06:43:43;10.60;;;10.20;;
30080;SDS011;16902;50.816;12.828;2023-07-08T06:48:52;11.63;;;11.10;;
30080;SDS011;16902;50.816;12.828;2023-07-08T06:53:55;12.27;;;11.68;;
30080;SDS011;16902;50.816;12.828;2023-07-08T06:58:56;12.35;;;11.75;;
30080;SDS011;16902;50.816;12.828;2023-07-08T07:03:58;12.20;;;11.70;;
30080;SDS011;16902;50.816;12.828;2023-07-08T07:09:01;12.48;;;11.98;;
30080;SDS011;16902;50.816;12.828;2023-07-08T07:14:03;12.90;;;12.10;;
30080;SDS011;16902;50.816;12.828;2023-07-08T07:19:25;13.05;;;12.45;;
30080;SDS011;16902;50.816;12.828;2023-07-08T07:24:26;13.13;;;12.43;;
30080;SDS011;16902;50.816;12.828;2023-07-08T07:29:38;12.82;;;12.32;;
30080;SDS011;16902;50.816;12.828;2023-07-08T07:34:45;12.18;;;11.68;;
30080;SDS011;16902;50.816;12.828;2023-07-08T07:40:13;12.32;;;11.82;;
30080;SDS011;16902;50.816;12.828;2023-07-08T07:45:17;12.52;;;12.02;;
30080;SDS011;16902;50.816;12.828;2023-07-08T07:50:18;13.07;;;12.57;;
30080;SDS011;16902;50.816;12.828;2023-07-08T07:55:20;13.45;;;12.85;;
30080;SDS011;16902;50.816;12.828;2023-07-08T08:00:22;13.23;;;12.73;;
30080;SDS011;16902;50.816;12.828;2023-07-08T08:05:24;14.48;;;13.77;;
30080;SDS011;16902;50.816;12.828;2023-07-08T08:10:27;14.05;;;13.23;;
30080;SDS011;16902;50.816;12.828;2023-07-08T08:15:29;12.82;;;12.23;;
30080;SDS011;16902;50.816;12.828;2023-07-08T08:20:30;13.60;;;12.93;;
30080;SDS011;16902;50.816;12.828;2023-07-08T08:25:32;14.13;;;13.52;;
30080;SDS011;16902;50.816;12.828;2023-07-08T08:30:34;12.95;;;12.35;;
30080;SDS011;16902;50.816;12.828;2023-07-08T08:35:36;13.50;;;12.90;;
30080;SDS011;16902;50.816;12.828;2023-07-08T08:40:41;12.30;;;11.80;;
30080;SDS011;16902;50.816;12.828;2023-07-08T08:45:52;12.55;;;12.05;;
30080;SDS011;16902;50.816;12.828;2023-07-08T08:51:01;13.50;;;12.95;;
30080;SDS011;16902;50.816;12.828;2023-07-08T09:01:22;13.82;;;13.23;;
30080;SDS011;16902;50.816;12.828;2023-07-08T09:06:28;13.65;;;13.05;;
30080;SDS011;16902;50.816;12.828;2023-07-08T09:17:20;13.45;;;12.95;;
30080;SDS011;16902;50.816;12.828;2023-07-08T09:22:40;13.38;;;12.88;;
30080;SDS011;16902;50.816;12.828;2023-07-08T09:27:46;13.80;;;13.23;;
30080;SDS011;16902;50.816;12.828;2023-07-08T09:32:50;14.13;;;13.52;;
30080;SDS011;16902;50.816;12.828;2023-07-08T09:37:52;12.82;;;12.32;;
30080;SDS011;16902;50.816;12.828;2023-07-08T09:42:58;13.10;;;12.50;;
30080;SDS011;16902;50.816;12.828;2023-07-08T09:48:03;13.13;;;12.55;;
30080;SDS011;16902;50.816;12.828;2023-07-08T09:53:11;13.68;;;13.00;;
30080;SDS011;16902;50.816;12.828;2023-07-08T09:58:19;13.90;;;12.52;;
30080;SDS011;16902;50.816;12.828;2023-07-08T10:03:27;13.65;;;13.05;;
30080;SDS011;16902;50.816;12.828;2023-07-08T10:08:37;13.10;;;12.60;;
30080;SDS011;16902;50.816;12.828;2023-07-08T10:13:45;13.23;;;12.63;;
30080;SDS011;16902;50.816;12.828;2023-07-08T10:19:09;13.50;;;12.90;;
30080;SDS011;16902;50.816;12.828;2023-07-08T10:35:26;13.52;;;12.93;;
30080;SDS011;16902;50.816;12.828;2023-07-08T10:40:34;14.07;;;13.45;;
30080;SDS011;16902;50.816;12.828;2023-07-08T11:06:54;13.70;;;13.00;;
30080;SDS011;16902;50.816;12.828;2023-07-08T11:22:51;12.93;;;12.43;;
30080;SDS011;16902;50.816;12.828;2023-07-08T11:27:58;13.18;;;12.68;;
30080;SDS011;16902;50.816;12.828;2023-07-08T11:33:05;13.23;;;12.73;;
30080;SDS011;16902;50.816;12.828;2023-07-08T11:38:12;13.00;;;12.48;;
30080;SDS011;16902;50.816;12.828;2023-07-08T11:43:17;12.57;;;12.07;;
30080;SDS011;16902;50.816;12.828;2023-07-08T11:48:27;12.73;;;12.23;;
30080;SDS011;16902;50.816;12.828;2023-07-08T11:53:38;12.90;;;12.40;;
30080;SDS011;16902;50.816;12.828;2023-07-08T12:03:51;12.98;;;12.48;;
30080;SDS011;16902;50.816;12.828;2023-07-08T12:08:57;13.25;;;12.73;;
30080;SDS011;16902;50.816;12.828;2023-07-08T12:14:14;12.98;;;12.35;;
30080;SDS011;16902;50.816;12.828;2023-07-08T12:19:18;12.65;;;12.15;;
30080;SDS011;16902;50.816;12.828;2023-07-08T12:24:22;12.52;;;12.02;;
30080;SDS011;16902;50.816;12.828;2023-07-08T12:29:27;12.23;;;11.73;;
30080;SDS011;16902;50.816;12.828;2023-07-08T12:34:29;12.60;;;12.10;;
30080;SDS011;16902;50.816;12.828;2023-07-08T12:39:33;12.68;;;12.18;;
30080;SDS011;16902;50.816;12.828;2023-07-08T12:44:36;12.80;;;12.30;;
30080;SDS011;16902;50.816;12.828;2023-07-08T12:49:43;12.10;;;11.60;;
30080;SDS011;16902;50.816;12.828;2023-07-08T12:54:45;12.55;;;12.05;;
30080;SDS011;16902;50.816;12.828;2023-07-08T12:59:47;12.60;;;12.10;;
30080;SDS011;16902;50.816;12.828;2023-07-08T13:04:56;12.10;;;11.70;;
30080;SDS011;16902;50.816;12.828;2023-07-08T13:10:05;12.70;;;12.20;;
30080;SDS011;16902;50.816;12.828;2023-07-08T13:15:14;12.32;;;11.82;;
30080;SDS011;16902;50.816;12.828;2023-07-08T13:20:24;12.00;;;11.50;;
30080;SDS011;16902;50.816;12.828;2023-07-08T13:25:28;11.68;;;11.27;;
30080;SDS011;16902;50.816;12.828;2023-07-08T13:30:33;11.77;;;11.38;;
30080;SDS011;16902;50.816;12.828;2023-07-08T13:35:36;11.57;;;11.18;;
30080;SDS011;16902;50.816;12.828;2023-07-08T13:40:40;11.35;;;10.95;;
30080;SDS011;16902;50.816;12.828;2023-07-08T13:45:45;12.18;;;11.68;;
30080;SDS011;16902;50.816;12.828;2023-07-08T13:51:02;12.02;;;11.52;;
30080;SDS011;16902;50.816;12.828;2023-07-08T14:01:21;12.63;;;12.13;;
30080;SDS011;16902;50.816;12.828;2023-07-08T14:06:25;13.20;;;12.55;;
30080;SDS011;16902;50.816;12.828;2023-07-08T14:11:30;13.55;;;12.95;;
30080;SDS011;16902;50.816;12.828;2023-07-08T14:16:33;13.35;;;12.85;;
30080;SDS011;16902;50.816;12.828;2023-07-08T14:21:37;14.00;;;13.40;;
30080;SDS011;16902;50.816;12.828;2023-07-08T14:26:41;14.10;;;13.50;;
30080;SDS011;16902;50.816;12.828;2023-07-08T14:31:44;14.23;;;13.63;;
30080;SDS011;16902;50.816;12.828;2023-07-08T14:36:46;14.13;;;13.52;;
30080;SDS011;16902;50.816;12.828;2023-07-08T14:41:50;13.93;;;13.32;;
30080;SDS011;16902;50.816;12.828;2023-07-08T14:46:53;13.30;;;12.80;;
30080;SDS011;16902;50.816;12.828;2023-07-08T14:51:55;13.25;;;12.75;;
30080;SDS011;16902;50.816;12.828;2023-07-08T14:56:57;12.45;;;11.95;;
30080;SDS011;16902;50.816;12.828;2023-07-08T15:02:00;11.93;;;11.52;;
30080;SDS011;16902;50.816;12.828;2023-07-08T15:07:13;12.10;;;11.60;;
30080;SDS011;16902;50.816;12.828;2023-07-08T15:12:14;11.80;;;11.30;;
30080;SDS011;16902;50.816;12.828;2023-07-08T15:17:18;11.98;;;11.48;;
30080;SDS011;16902;50.816;12.828;2023-07-08T15:22:20;12.10;;;11.60;;
30080;SDS011;16902;50.816;12.828;2023-07-08T15:27:22;12.23;;;11.73;;
30080;SDS011;16902;50.816;12.828;2023-07-08T15:32:24;11.38;;;10.98;;
30080;SDS011;16902;50.816;12.828;2023-07-08T15:37:42;11.68;;;11.27;;
30080;SDS011;16902;50.816;12.828;2023-07-08T15:42:45;12.10;;;11.60;;
30080;SDS011;16902;50.816;12.828;2023-07-08T15:47:49;12.30;;;11.80;;
30080;SDS011;16902;50.816;12.828;2023-07-08T15:52:52;12.27;;;11.77;;
30080;SDS011;16902;50.816;12.828;2023-07-08T15:57:55;12.18;;;11.68;;
30080;SDS011;16902;50.816;12.828;2023-07-08T16:03:01;11.55;;;11.15;;
30080;SDS011;16902;50.816;12.828;2023-07-08T16:08:08;12.07;;;11.57;;
30080;SDS011;16902;50.816;12.828;2023-07-08T16:13:10;12.85;;;12.35;;
30080;SDS011;16902;50.816;12.828;2023-07-08T16:18:13;13.20;;;12.70;;
30080;SDS011;16902;50.816;12.828;2023-07-08T16:23:15;13.32;;;12.82;;
30080;SDS011;16902;50.816;12.828;2023-07-08T16:33:28;13.73;;;13.15;;
30080;SDS011;16902;50.816;12.828;2023-07-08T16:38:30;13.75;;;13.15;;
30080;SDS011;16902;50.816;12.828;2023-07-08T16:43:31;13.98;;;13.38;;
30080;SDS011;16902;50.816;12.828;2023-07-08T16:48:33;14.52;;;13.93;;
30080;SDS011;16902;50.816;12.828;2023-07-08T16:53:35;14.98;;;14.30;;
30080;SDS011;16902;50.816;12.828;2023-07-08T16:58:36;15.10;;;14.50;;
30080;SDS011;16902;50.816;12.828;2023-07-08T17:03:38;14.52;;;13.93;;
30080;SDS011;16902;50.816;12.828;2023-07-08T17:08:40;15.20;;;14.57;;
30080;SDS011;16902;50.816;12.828;2023-07-08T17:13:42;15.20;;;14.60;;
30080;SDS011;16902;50.816;12.828;2023-07-08T17:18:45;15.32;;;14.63;;
30080;SDS011;16902;50.816;12.828;2023-07-08T17:23:54;14.70;;;14.10;;
30080;SDS011;16902;50.816;12.828;2023-07-08T17:28:56;15.43;;;14.73;;
30080;SDS011;16902;50.816;12.828;2023-07-08T17:33:58;14.93;;;14.25;;
30080;SDS011;16902;50.816;12.828;2023-07-08T17:39:02;15.32;;;14.63;;
30080;SDS011;16902;50.816;12.828;2023-07-08T17:44:08;15.07;;;14.38;;
30080;SDS011;16902;50.816;12.828;2023-07-08T17:49:13;14.93;;;14.32;;
30080;SDS011;16902;50.816;12.828;2023-07-08T17:54:15;14.80;;;14.20;;
30080;SDS011;16902;50.816;12.828;2023-07-08T17:59:18;14.68;;;14.07;;
30080;SDS011;16902;50.816;12.828;2023-07-08T18:04:21;15.07;;;14.38;;
30080;SDS011;16902;50.816;12.828;2023-07-08T18:09:23;16.25;;;15.48;;
30080;SDS011;16902;50.816;12.828;2023-07-08T18:14:25;15.32;;;14.63;;
30080;SDS011;16902;50.816;12.828;2023-07-08T18:19:27;14.55;;;13.95;;
30080;SDS011;16902;50.816;12.828;2023-07-08T18:24:29;15.13;;;14.43;;
30080;SDS011;16902;50.816;12.828;2023-07-08T18:29:31;14.77;;;14.18;;
30080;SDS011;16902;50.816;12.828;2023-07-08T18:34:38;14.90;;;14.30;;
30080;SDS011;16902;50.816;12.828;2023-07-08T18:39:40;14.85;;;14.15;;
30080;SDS011;16902;50.816;12.828;2023-07-08T18:44:42;14.75;;;14.15;;
30080;SDS011;16902;50.816;12.828;2023-07-08T18:49:43;14.82;;;14.23;;
30080;SDS011;16902;50.816;12.828;2023-07-08T18:54:45;14.40;;;13.80;;
30080;SDS011;16902;50.816;12.828;2023-07-08T18:59:47;14.60;;;14.00;;
30080;SDS011;16902;50.816;12.828;2023-07-08T19:04:52;15.45;;;14.68;;
30080;SDS011;16902;50.816;12.828;2023-07-08T19:09:54;14.80;;;14.20;;
30080;SDS011;16902;50.816;12.828;2023-07-08T19:14:59;15.80;;;15.00;;
30080;SDS011;16902;50.816;12.828;2023-07-08T19:20:01;15.13;;;14.43;;
30080;SDS011;16902;50.816;12.828;2023-07-08T19:25:03;14.55;;;13.95;;
30080;SDS011;16902;50.816;12.828;2023-07-08T19:30:10;14.40;;;13.70;;
30080;SDS011;16902;50.816;12.828;2023-07-08T19:35:13;14.77;;;13.98;;
30080;SDS011;16902;50.816;12.828;2023-07-08T19:40:18;15.30;;;14.38;;
30080;SDS011;16902;50.816;12.828;2023-07-08T19:50:26;21.10;;;19.60;;
30080;SDS011;16902;50.816;12.828;2023-07-08T19:55:29;20.42;;;18.92;;
30080;SDS011;16902;50.816;12.828;2023-07-08T20:00:37;17.65;;;16.63;;
30080;SDS011;16902;50.816;12.828;2023-07-08T20:05:41;15.85;;;15.02;;
30080;SDS011;16902;50.816;12.828;2023-07-08T20:10:43;16.45;;;15.45;;
30080;SDS011;16902;50.816;12.828;2023-07-08T20:15:45;18.15;;;16.95;;
30080;SDS011;16902;50.816;12.828;2023-07-08T20:20:47;20.15;;;18.52;;
30080;SDS011;16902;50.816;12.828;2023-07-08T20:25:49;18.42;;;17.23;;
30080;SDS011;16902;50.816;12.828;2023-07-08T20:30:51;17.45;;;16.35;;
30080;SDS011;16902;50.816;12.828;2023-07-08T20:35:53;19.23;;;17.98;;
30080;SDS011;16902;50.816;12.828;2023-07-08T20:40:55;37.53;;;32.00;;
30080;SDS011;16902;50.816;12.828;2023-07-08T20:45:56;49.03;;;40.45;;
30080;SDS011;16902;50.816;12.828;2023-07-08T20:51:00;44.88;;;37.80;;
30080;SDS011;16902;50.816;12.828;2023-07-08T20:56:04;35.72;;;31.95;;
30080;SDS011;16902;50.816;12.828;2023-07-08T21:01:15;28.50;;;25.90;;
30080;SDS011;16902;50.816;12.828;2023-07-08T21:06:21;20.77;;;18.73;;
30080;SDS011;16902;50.816;12.828;2023-07-08T21:11:25;41.35;;;37.00;;
30080;SDS011;16902;50.816;12.828;2023-07-08T21:16:30;27.67;;;25.10;;
30080;SDS011;16902;50.816;12.828;2023-07-08T21:21:32;23.20;;;21.30;;
30080;SDS011;16902;50.816;12.828;2023-07-08T21:26:35;20.52;;;18.75;;
30080;SDS011;16902;50.816;12.828;2023-07-08T21:31:37;17.50;;;16.10;;
30080;SDS011;16902;50.816;12.828;2023-07-08T21:36:39;16.60;;;15.43;;
30080;SDS011;16902;50.816;12.828;2023-07-08T21:41:48;16.73;;;15.73;;
30080;SDS011;16902;50.816;12.828;2023-07-08T21:46:49;16.17;;;15.27;;
30080;SDS011;16902;50.816;12.828;2023-07-08T21:51:52;29.55;;;26.55;;
30080;SDS011;16902;50.816;12.828;2023-07-08T21:56:53;41.70;;;30.55;;
30080;SDS011;16902;50.816;12.828;2023-07-08T22:01:55;31.55;;;28.38;;
30080;SDS011;16902;50.816;12.828;2023-07-08T22:06:59;54.55;;;44.83;;
30080;SDS011;16902;50.816;12.828;2023-07-08T22:12:08;62.28;;;47.55;;
30080;SDS011;16902;50.816;12.828;2023-07-08T22:17:14;36.45;;;31.50;;
30080;SDS011;16902;50.816;12.828;2023-07-08T22:22:19;29.27;;;26.35;;
30080;SDS011;16902;50.816;12.828;2023-07-08T22:27:24;35.65;;;31.95;;
30080;SDS011;16902;50.816;12.828;2023-07-08T22:32:26;27.80;;;25.27;;
30080;SDS011;16902;50.816;12.828;2023-07-08T22:37:28;22.73;;;20.83;;
30080;SDS011;16902;50.816;12.828;2023-07-08T22:42:30;19.23;;;18.02;;
30080;SDS011;16902;50.816;12.828;2023-07-08T22:47:32;20.13;;;18.30;;
30080;SDS011;16902;50.816;12.828;2023-07-08T22:52:37;14.65;;;13.85;;
30080;SDS011;16902;50.816;12.828;2023-07-08T22:57:40;14.70;;;13.80;;
30080;SDS011;16902;50.816;12.828;2023-07-08T23:02:42;14.73;;;13.82;;
30080;SDS011;16902;50.816;12.828;2023-07-08T23:07:44;14.15;;;13.35;;
30080;SDS011;16902;50.816;12.828;2023-07-08T23:12:46;13.93;;;12.93;;
30080;SDS011;16902;50.816;12.828;2023-07-08T23:17:49;12.82;;;12.13;;
30080;SDS011;16902;50.816;12.828;2023-07-08T23:22:53;11.25;;;10.75;;
30080;SDS011;16902;50.816;12.828;2023-07-08T23:27:55;11.38;;;10.80;;
30080;SDS011;16902;50.816;12.828;2023-07-08T23:32:56;11.77;;;11.15;;
30080;SDS011;16902;50.816;12.828;2023-07-08T23:37:59;11.68;;;11.13;;
30080;SDS011;16902;50.816;12.828;2023-07-08T23:43:01;13.23;;;12.35;;
30080;SDS011;16902;50.816;12.828;2023-07-08T23:48:03;12.95;;;12.25;;
30080;SDS011;16902;50.816;12.828;2023-07-08T23:53:05;12.65;;;11.93;;
30080;SDS011;16902;50.816;12.828;2023-07-08T23:58:09;10.98;;;10.38;;
